createdAt,value
2022-12-01T00:01:18.438Z,102594.88
2022-12-01T00:06:22.693Z,102595.22
2022-12-01T00:11:26.401Z,102592.94
2022-12-01T00:16:31.507Z,102587.91
2022-12-01T00:21:35.206Z,102589.91
2022-12-01T00:26:39.734Z,102587.31
2022-12-01T00:31:45.893Z,102589.13
2022-12-01T00:36:49.751Z,102586.81
2022-12-01T00:41:53.441Z,102579.47
2022-12-01T00:46:58.496Z,102583.56
2022-12-01T00:52:02.179Z,102575.91
2022-12-01T00:57:06.244Z,102579.06
2022-12-01T01:02:11.304Z,102581.34
2022-12-01T01:07:15.077Z,102581.34
2022-12-01T01:12:18.740Z,102584.34
2022-12-01T01:17:23.859Z,102587.19
2022-12-01T01:22:27.569Z,102603.19
2022-12-01T01:27:31.302Z,102599.75
2022-12-01T01:32:36.398Z,102612.78
2022-12-01T01:37:40.116Z,102615.97
2022-12-01T01:42:43.797Z,102623.16
2022-12-01T01:47:51.211Z,102619.97
2022-12-01T01:53:02.313Z,102616.97
2022-12-01T01:58:10.229Z,102612.41
2022-12-01T02:03:18.058Z,102610.00
2022-12-01T02:08:21.926Z,102612.06
2022-12-01T02:13:34.703Z,102620.19
2022-12-01T02:18:52.117Z,102614.44
2022-12-01T02:24:35.663Z,102620.19
2022-12-01T02:30:02.855Z,102625.47
2022-12-01T02:35:17.283Z,102615.97
2022-12-01T02:40:26.518Z,102609.19
2022-12-01T02:45:37.778Z,102613.00
2022-12-01T02:50:44.073Z,102621.72
2022-12-01T02:55:49.659Z,102612.22
2022-12-01T03:01:08.160Z,102614.00
2022-12-01T03:06:18.433Z,102611.03
2022-12-01T03:11:31.571Z,102611.78
2022-12-01T03:16:46.926Z,102621.16
2022-12-01T03:21:59.496Z,102605.78
2022-12-01T03:27:05.691Z,102608.34
2022-12-01T03:32:14.290Z,102614.22
2022-12-01T03:37:23.579Z,102612.16
2022-12-01T03:42:31.559Z,102622.53
2022-12-01T03:47:37.630Z,102618.34
2022-12-01T03:52:50.859Z,102624.22
2022-12-01T03:57:59.337Z,102623.50
2022-12-01T04:03:04.893Z,102625.31
2022-12-01T04:08:10.094Z,102620.94
2022-12-01T04:13:22.521Z,102627.88
2022-12-01T04:18:26.256Z,102626.22
2022-12-01T04:23:48.826Z,102628.78
2022-12-01T04:28:52.558Z,102624.41
2022-12-01T04:33:56.536Z,102621.72
2022-12-01T04:39:02.146Z,102620.94
2022-12-01T04:44:06.214Z,102623.97
2022-12-01T04:49:10.297Z,102626.41
2022-12-01T04:54:15.583Z,102624.75
2022-12-01T04:59:19.304Z,102616.34
2022-12-01T05:04:23.001Z,102617.31
2022-12-01T05:09:28.092Z,102619.16
2022-12-01T05:14:31.760Z,102622.47
2022-12-01T05:19:53.078Z,102631.22
2022-12-01T05:24:58.172Z,102616.44
2022-12-01T05:30:01.860Z,102619.91
2022-12-01T05:35:06.450Z,102620.31
2022-12-01T05:40:12.978Z,102626.34
2022-12-01T05:45:16.857Z,102628.28
2022-12-01T05:50:20.579Z,102626.50
2022-12-01T05:55:26.080Z,102639.34
2022-12-01T06:00:30.283Z,102637.25
2022-12-01T06:05:34.074Z,102629.69
2022-12-01T06:10:39.101Z,102629.53
2022-12-01T06:15:42.814Z,102630.59
2022-12-01T06:20:46.486Z,102635.88
2022-12-01T06:25:51.574Z,102639.06
2022-12-01T06:31:00.992Z,102643.16
2022-12-01T06:36:08.586Z,102645.22
2022-12-01T06:41:13.702Z,102651.41
2022-12-01T06:46:17.427Z,102641.13
2022-12-01T06:51:21.360Z,102647.78
2022-12-01T06:56:26.417Z,102655.78
2022-12-01T07:01:30.488Z,102655.00
2022-12-01T07:06:34.220Z,102663.19
2022-12-01T07:11:39.243Z,102667.84
2022-12-01T07:16:43.137Z,102670.13
2022-12-01T07:21:46.845Z,102678.00
2022-12-01T07:26:51.942Z,102673.44
2022-12-01T07:31:55.645Z,102679.50
2022-12-01T07:36:59.423Z,102681.56
2022-12-01T07:42:05.152Z,102684.28
2022-12-01T07:47:08.981Z,102695.63
2022-12-01T07:52:12.698Z,102682.62
2022-12-01T07:57:19.635Z,102693.94
2022-12-01T08:02:23.455Z,102693.16
2022-12-01T08:07:29.884Z,102701.66
2022-12-01T08:12:35.181Z,102706.00
2022-12-01T08:17:38.858Z,102699.25
2022-12-01T08:22:42.965Z,102706.75
2022-12-01T08:27:48.259Z,102703.69
2022-12-01T08:32:54.390Z,102697.84
2022-12-01T08:37:58.163Z,102706.78
2022-12-01T08:43:03.228Z,102715.91
2022-12-01T08:48:07.475Z,102720.16
2022-12-01T08:53:11.194Z,102735.72
2022-12-01T08:58:16.256Z,102728.31
2022-12-01T09:03:20.056Z,102738.09
2022-12-01T09:08:34.041Z,102725.09
2022-12-01T09:13:40.151Z,102730.16
2022-12-01T09:18:44.678Z,102736.50
2022-12-01T09:23:48.818Z,102737.38
2022-12-01T09:28:56.330Z,102744.56
2022-12-01T09:34:01.966Z,102745.03
2022-12-01T09:39:07.474Z,102741.38
2022-12-01T09:44:21.882Z,102738.66
2022-12-01T09:49:30.479Z,102737.75
2022-12-01T09:54:34.196Z,102738.19
2022-12-01T09:59:43.240Z,102733.62
2022-12-01T10:04:48.941Z,102718.53
2022-12-01T10:09:56.829Z,102720.28
2022-12-01T10:15:16.211Z,102711.63
2022-12-01T10:20:26.861Z,102707.03
2022-12-01T10:25:38.734Z,102704.41
2022-12-01T10:30:50.839Z,102701.31
2022-12-01T10:35:55.167Z,102698.13
2022-12-01T10:41:01.666Z,102695.97
2022-12-01T10:46:20.718Z,102698.84
2022-12-01T10:51:25.132Z,102698.34
2022-12-01T10:56:29.513Z,102696.59
2022-12-01T11:01:36.327Z,102697.78
2022-12-01T11:06:40.598Z,102691.22
2022-12-01T11:11:44.470Z,102683.06
2022-12-01T11:16:52.500Z,102688.88
2022-12-01T11:21:58.433Z,102683.25
2022-12-01T11:27:02.261Z,102680.69
2022-12-01T11:32:20.232Z,102670.91
2022-12-01T11:37:26.577Z,102667.19
2022-12-01T11:42:34.361Z,102660.31
2022-12-01T11:47:59.704Z,102653.22
2022-12-01T11:53:04.185Z,102649.75
2022-12-01T11:58:09.897Z,102644.38
2022-12-01T12:03:22.218Z,102634.84
2022-12-01T12:08:36.682Z,102633.81
2022-12-01T12:14:12.589Z,102629.69
2022-12-01T12:20:06.442Z,102626.50
2022-12-01T12:25:09.342Z,102617.44
2022-12-01T12:30:23.513Z,102616.63
2022-12-01T12:35:36.755Z,102615.22
2022-12-01T12:40:47.785Z,102614.78
2022-12-01T12:46:08.353Z,102605.22
2022-12-01T12:51:18.851Z,102602.03
2022-12-01T12:56:27.038Z,102595.63
2022-12-01T13:01:35.537Z,102588.38
2022-12-01T13:06:44.659Z,102595.31
2022-12-01T13:11:54.040Z,102600.00
2022-12-01T13:17:08.342Z,102590.72
2022-12-01T13:22:15.363Z,102581.00
2022-12-01T13:27:22.203Z,102581.84
2022-12-01T13:32:31.427Z,102578.72
2022-12-01T13:37:39.211Z,102576.13
2022-12-01T13:42:43.289Z,102572.44
2022-12-01T13:47:52.699Z,102569.50
2022-12-01T13:53:11.447Z,102571.19
2022-12-01T13:58:27.381Z,102564.16
2022-12-01T14:03:56.987Z,102573.03
2022-12-01T14:09:07.273Z,102571.34
2022-12-01T14:14:14.535Z,102569.03
2022-12-01T14:19:31.538Z,102568.69
2022-12-01T14:24:40.415Z,102570.09
2022-12-01T14:29:44.520Z,102575.87
2022-12-01T14:34:53.770Z,102571.12
2022-12-01T14:40:07.068Z,102577.97
2022-12-01T14:45:16.475Z,102572.53
2022-12-01T14:50:25.473Z,102578.31
2022-12-01T14:55:35.319Z,102558.53
2022-12-01T15:00:41.736Z,102565.84
2022-12-01T15:05:45.609Z,102560.47
2022-12-01T15:10:55.856Z,102562.63
2022-12-01T15:16:01.340Z,102569.31
2022-12-01T15:21:09.514Z,102567.91
2022-12-01T15:26:19.809Z,102581.91
2022-12-01T15:31:24.543Z,102582.28
2022-12-01T15:36:28.472Z,102581.50
2022-12-01T15:41:36.692Z,102582.69
2022-12-01T15:46:40.249Z,102581.41
2022-12-01T15:51:44.568Z,102584.19
2022-12-01T15:56:53.865Z,102575.22
2022-12-01T16:01:58.366Z,102579.81
2022-12-01T16:07:05.618Z,102573.91
2022-12-01T16:12:28.930Z,102579.56
2022-12-01T16:17:43.241Z,102581.47
2022-12-01T16:22:47.687Z,102583.41
2022-12-01T16:27:54.815Z,102589.56
2022-12-01T16:33:03.344Z,102594.69
2022-12-01T16:38:15.811Z,102593.53
2022-12-01T16:43:22.859Z,102599.16
2022-12-01T16:48:26.641Z,102598.50
2022-12-01T16:53:30.462Z,102597.78
2022-12-01T16:58:35.653Z,102599.44
2022-12-01T17:03:39.525Z,102595.28
2022-12-01T17:08:43.252Z,102598.38
2022-12-01T17:13:48.282Z,102597.09
2022-12-01T17:18:52.146Z,102597.44
2022-12-01T17:23:55.922Z,102590.78
2022-12-01T17:29:01.018Z,102582.03
2022-12-01T17:34:04.811Z,102581.91
2022-12-01T17:39:08.539Z,102583.84
2022-12-01T17:44:13.676Z,102579.59
2022-12-01T17:49:17.481Z,102582.16
2022-12-01T17:54:21.479Z,102580.72
2022-12-01T17:59:26.879Z,102586.75
2022-12-01T18:04:31.310Z,102580.59
2022-12-01T18:09:35.292Z,102579.41
2022-12-01T18:14:40.801Z,102580.31
2022-12-01T18:19:44.510Z,102577.88
2022-12-01T18:24:48.672Z,102582.09
2022-12-01T18:29:54.036Z,102578.13
2022-12-01T18:34:57.909Z,102580.69
2022-12-01T18:40:01.576Z,102583.00
2022-12-01T18:45:07.606Z,102586.94
2022-12-01T18:50:11.749Z,102582.59
2022-12-01T18:55:15.723Z,102585.41
2022-12-01T19:00:21.966Z,102579.22
2022-12-01T19:05:27.822Z,102580.00
2022-12-01T19:10:31.417Z,102576.25
2022-12-01T19:15:38.676Z,102573.41
2022-12-01T19:20:42.558Z,102575.09
2022-12-01T19:25:46.339Z,102579.34
2022-12-01T19:30:51.441Z,102571.47
2022-12-01T19:35:55.625Z,102575.31
2022-12-01T19:41:02.127Z,102575.16
2022-12-01T19:46:09.331Z,102577.00
2022-12-01T19:51:19.775Z,102578.72
2022-12-01T19:56:24.869Z,102573.75
2022-12-01T20:01:30.150Z,102577.06
2022-12-01T20:06:35.984Z,102577.78
2022-12-01T20:11:39.677Z,102577.53
2022-12-01T20:16:44.939Z,102572.41
2022-12-01T20:21:48.798Z,102577.16
2022-12-01T20:26:56.668Z,102567.00
2022-12-01T20:32:03.248Z,102571.38
2022-12-01T20:37:07.194Z,102578.06
2022-12-01T20:42:11.423Z,102579.56
2022-12-01T20:47:18.571Z,102578.94
2022-12-01T20:52:22.494Z,102569.44
2022-12-01T20:57:26.411Z,102567.50
2022-12-01T21:02:31.637Z,102577.00
2022-12-01T21:07:35.431Z,102564.00
2022-12-01T21:12:58.352Z,102561.78
2022-12-01T21:18:06.490Z,102549.88
2022-12-01T21:23:12.931Z,102556.47
2022-12-01T21:28:19.885Z,102559.69
2022-12-01T21:33:29.139Z,102550.81
2022-12-01T21:38:32.975Z,102555.94
2022-12-01T21:43:38.575Z,102542.97
2022-12-01T21:48:46.061Z,102545.75
2022-12-01T21:53:51.022Z,102536.88
2022-12-01T21:58:58.750Z,102538.66
2022-12-01T22:04:13.170Z,102527.03
2022-12-01T22:09:23.645Z,102518.13
2022-12-01T22:14:33.197Z,102518.75
2022-12-01T22:19:42.275Z,102517.72
2022-12-01T22:24:47.905Z,102516.81
2022-12-01T22:29:53.556Z,102515.03
2022-12-01T22:35:01.207Z,102516.66
2022-12-01T22:40:30.594Z,102517.44
2022-12-01T22:45:34.499Z,102516.28
2022-12-01T22:50:40.707Z,102507.97
2022-12-01T22:55:44.725Z,102520.00
2022-12-01T23:00:48.495Z,102512.16
2022-12-01T23:05:57.418Z,102506.41
2022-12-01T23:11:01.206Z,102516.41
2022-12-01T23:16:05.653Z,102518.34
2022-12-01T23:21:11.132Z,102507.03
2022-12-01T23:26:15.002Z,102496.66
2022-12-01T23:31:18.750Z,102493.44
2022-12-01T23:36:26.042Z,102495.88
2022-12-01T23:41:33.938Z,102489.56
2022-12-01T23:46:37.976Z,102494.69
2022-12-01T23:51:46.699Z,102478.25
2022-12-01T23:56:53.201Z,102475.44
